Terminal Aerodrome Forecast
Issued by NWS

Home | Current Version | Previous Version | Text Only | Print | Product List | Glossary On
Versions: 1 2 3 4 5 6 7 8 9 10 11 12 13 14 15 16 17 18 19
000
FTUS43 KSGF 281700 RRA
TAFJLN
TAF
KJLN 281748Z 2818/2918 19020G28KT P6SM SKC
     FM290000 20015G23KT P6SM SCT250 WS020/22045KT
     FM290600 25012KT P6SM SKC
     FM290900 31012KT P6SM SKC
     FM291500 34014G22KT P6SM BKN050=

USA.gov is the U.S. government's official web portal to all federal, state and local government web resources and services.